Time;durP1;ratioP1;P1;durP2;ratioP2;P2;SDS_P1;SDS_P2;PMS_P1;PMS_P2;Temp;Humidity;BMP_temperature;BMP_pressure;BME280_temperature;BME280_humidity;BME280_pressure;Samples;Min_cycle;Max_cycle;Signal;HPM_P1;HPM_P2
2023/08/11 00:06:48;;;;;;;2.40;1.70;;;;;;;21.95;40.70;100789.63;41443715;28;20042;-71
2023/08/11 00:26:49;;;;;;;2.15;1.63;;;;;;;21.93;40.75;100794.16;41432659;28;20050;-71
2023/08/11 00:46:50;;;;;;;2.53;1.65;;;;;;;21.87;40.61;100794.63;41420049;28;20087;-71
2023/08/11 01:07:09;;;;;;;2.53;1.60;;;;;;;21.88;40.71;100797.13;41405691;28;20045;-71
2023/08/11 01:27:11;;;;;;;2.33;1.35;;;;;;;21.55;41.69;100774.91;41390878;28;20058;-70
2023/08/11 01:47:12;;;;;;;1.77;1.42;;;;;;;21.54;42.05;100798.75;41441426;28;20068;-70
2023/08/11 02:07:13;;;;;;;2.92;1.70;;;;;;;21.39;42.03;100803.31;41429655;28;20054;-69
2023/08/11 02:27:14;;;;;;;2.47;1.77;;;;;;;21.35;42.24;100805.34;41423935;28;20057;-70
2023/08/11 02:47:14;;;;;;;3.60;2.00;;;;;;;21.03;42.53;100783.91;41435007;28;20049;-70
2023/08/11 03:07:16;;;;;;;2.30;1.83;;;;;;;21.16;42.87;100818.97;41438301;28;20045;-69
2023/08/11 03:27:18;;;;;;;3.17;2.05;;;;;;;20.50;43.17;100726.16;41400340;28;20077;-72
2023/08/11 03:47:19;;;;;;;3.03;1.70;;;;;;;20.82;44.09;100837.09;41423107;28;20082;-71
2023/08/11 04:07:19;;;;;;;4.55;1.90;;;;;;;20.84;44.18;100842.28;41431464;28;20440;-71
2023/08/11 04:27:20;;;;;;;5.40;1.88;;;;;;;21.26;43.86;100871.81;41412706;28;20400;-73
2023/08/11 04:47:20;;;;;;;4.25;1.90;;;;;;;21.42;43.74;100888.25;41394234;28;20062;-78
2023/08/11 05:07:23;;;;;;;4.07;1.75;;;;;;;21.78;44.15;100898.13;41423921;28;20065;-74
2023/08/11 05:27:23;;;;;;;3.72;1.88;;;;;;;21.71;44.35;100879.25;41418063;28;20072;-74
2023/08/11 05:47:23;;;;;;;2.92;1.73;;;;;;;21.93;44.42;100897.00;41502315;28;20088;-74
2023/08/11 06:07:24;;;;;;;4.82;1.70;;;;;;;22.23;44.46;100906.25;41485366;28;20056;-76
2023/08/11 06:27:25;;;;;;;2.80;1.70;;;;;;;22.25;46.42;100938.63;41513955;28;20062;-79
2023/08/11 06:47:26;;;;;;;3.10;1.67;;;;;;;22.29;45.56;100941.88;41510795;28;20525;-78
2023/08/11 07:07:26;;;;;;;1.95;1.45;;;;;;;22.37;45.79;100943.03;41470543;28;20064;-77
2023/08/11 07:27:26;;;;;;;5.82;1.63;;;;;;;22.45;45.77;100960.94;41493165;28;20050;-77
2023/08/11 07:47:27;;;;;;;2.28;1.38;;;;;;;22.56;45.51;100962.81;41419492;28;20132;-77
2023/08/11 08:07:27;;;;;;;2.38;1.63;;;;;;;22.64;46.03;100972.78;41465574;28;20045;-77
2023/08/11 08:27:27;;;;;;;4.05;2.00;;;;;;;22.57;46.45;100969.75;41428407;28;20034;-77
2023/08/11 08:47:28;;;;;;;4.50;2.00;;;;;;;22.64;46.45;100965.72;41450878;28;20058;-79
2023/08/11 09:07:31;;;;;;;3.78;2.35;;;;;;;22.76;46.29;100973.66;41411273;28;20125;-78
2023/08/11 09:27:32;;;;;;;2.78;2.20;;;;;;;22.77;46.43;100967.44;41485729;28;20052;-79
2023/08/11 09:47:32;;;;;;;3.10;2.13;;;;;;;22.80;46.55;100957.47;41493407;28;20053;-81
2023/08/11 10:07:39;;;;;;;4.25;2.40;;;;;;;23.22;46.12;100959.63;41467952;28;20086;-78
2023/08/11 10:27:40;;;;;;;3.58;2.40;;;;;;;23.15;45.75;100930.16;41434860;28;20533;-78
2023/08/11 10:47:51;;;;;;;3.35;2.60;;;;;;;23.20;45.26;100934.28;41452170;28;20056;-74
2023/08/11 11:07:53;;;;;;;3.13;2.15;;;;;;;23.48;43.59;100923.22;41480416;28;20375;-75
2023/08/11 11:27:55;;;;;;;5.25;1.85;;;;;;;23.88;41.26;100913.94;41414847;28;20488;-77
2023/08/11 11:47:55;;;;;;;7.90;1.90;;;;;;;24.07;40.93;100905.38;41483532;28;20034;-75
2023/08/11 12:07:56;;;;;;;1.58;1.38;;;;;;;24.11;38.96;100892.75;41496905;28;20397;-78
2023/08/11 12:27:57;;;;;;;1.60;1.30;;;;;;;24.49;39.38;100886.06;41466363;28;20041;-77
2023/08/11 12:47:57;;;;;;;3.88;1.52;;;;;;;24.70;38.82;100893.22;41388174;28;21916;-78
2023/08/11 13:07:58;;;;;;;3.97;1.80;;;;;;;25.28;36.98;100882.06;41407185;28;20042;-74
2023/08/11 13:27:58;;;;;;;2.13;1.60;;;;;;;25.71;36.27;100893.38;41365683;28;20042;-75
2023/08/11 13:47:58;;;;;;;1.80;1.70;;;;;;;25.55;35.93;100878.81;41421773;28;20399;-75
2023/08/11 14:08:00;;;;;;;6.15;2.03;;;;;;;25.75;35.70;100872.72;41452813;28;20874;-78
2023/08/11 14:28:04;;;;;;;2.83;1.55;;;;;;;25.78;33.88;100841.44;41413699;28;20038;-73
2023/08/11 14:48:06;;;;;;;6.45;2.72;;;;;;;25.55;34.48;100875.34;41438210;28;20058;-72
2023/08/11 15:08:07;;;;;;;1.85;1.50;;;;;;;25.97;32.92;100861.81;41475403;28;20507;-74
2023/08/11 15:28:07;;;;;;;2.95;1.65;;;;;;;26.02;33.00;100874.69;41464163;28;20101;-73
2023/08/11 15:48:08;;;;;;;2.22;1.60;;;;;;;26.48;31.02;100875.81;41462720;28;20046;-73
2023/08/11 16:08:08;;;;;;;5.57;1.90;;;;;;;26.54;29.81;100834.56;41446034;28;20044;-74
2023/08/11 16:28:13;;;;;;;3.47;1.55;;;;;;;26.48;30.07;100872.31;41455913;28;20046;-75
2023/08/11 16:48:14;;;;;;;2.75;1.52;;;;;;;25.55;31.44;100876.16;41461549;28;20045;-74
2023/08/11 17:08:14;;;;;;;;;;;;;;;24.98;32.36;100880.25;41407793;28;20053;-75
2023/08/11 17:28:14;;;;;;;1.83;1.47;;;;;;;24.56;31.99;100889.88;41380875;28;21742;-73
2023/08/11 17:48:15;;;;;;;5.43;2.20;;;;;;;24.00;33.27;100859.22;41283975;28;20446;-77
2023/08/11 18:08:26;;;;;;;3.00;2.50;;;;;;;23.96;34.53;100916.84;41281580;28;20050;-73
2023/08/11 18:28:27;;;;;;;6.00;2.38;;;;;;;23.50;35.77;100934.53;41427300;28;20042;-73
2023/08/11 18:48:27;;;;;;;5.07;2.38;;;;;;;24.05;36.64;100952.28;41320588;28;20383;-75
2023/08/11 19:08:28;;;;;;;10.93;3.05;;;;;;;24.08;37.82;100956.47;41276557;28;20041;-77
2023/08/11 19:28:31;;;;;;;4.25;2.90;;;;;;;24.05;37.62;100965.50;41445218;28;20060;-77
2023/08/11 19:48:32;;;;;;;7.25;3.25;;;;;;;23.66;38.22;100960.59;41459667;28;20061;-75
2023/08/11 20:08:32;;;;;;;8.20;2.95;;;;;;;23.23;39.61;100948.09;41407514;28;20042;-77
2023/08/11 20:28:33;;;;;;;7.50;3.15;;;;;;;23.18;39.71;100952.91;41389011;28;20038;-74
2023/08/11 20:48:33;;;;;;;5.28;3.35;;;;;;;23.07;40.90;100968.69;41496524;28;20038;-76
2023/08/11 21:08:34;;;;;;;4.95;3.08;;;;;;;22.81;41.52;100961.81;41494914;28;20120;-73
2023/08/11 21:28:34;;;;;;;6.90;3.55;;;;;;;22.84;42.75;100972.13;41509721;28;20034;-75
2023/08/11 21:48:35;;;;;;;8.80;3.95;;;;;;;22.58;43.74;100958.22;41433853;28;20041;-73
2023/08/11 22:08:35;;;;;;;5.57;4.10;;;;;;;22.40;44.75;100976.28;41317478;28;20047;-76
2023/08/11 22:28:36;;;;;;;9.38;4.72;;;;;;;22.25;45.57;100978.19;41447285;28;20153;-73
2023/08/11 22:48:36;;;;;;;7.50;4.22;;;;;;;21.98;46.09;100957.31;41468530;28;20069;-74
2023/08/11 23:08:37;;;;;;;6.45;4.15;;;;;;;21.90;46.85;100966.59;41461055;28;20053;-74
2023/08/11 23:28:37;;;;;;;8.27;4.75;;;;;;;21.82;47.49;100970.75;41468999;28;20470;-76
2023/08/11 23:48:38;;;;;;;10.00;4.60;;;;;;;21.69;47.82;100984.78;41432324;28;20061;-75
